sensor_id;sensor_type;location;lat;lon;timestamp;temperature;humidity
54461;DHT22;40371;49.414;11.010;2022-10-30T00:00:27;15.20;99.90
54461;DHT22;40371;49.414;11.010;2022-10-30T00:02:53;15.20;99.90
54461;DHT22;40371;49.414;11.010;2022-10-30T00:05:19;15.30;99.90
54461;DHT22;40371;49.414;11.010;2022-10-30T00:07:46;15.40;99.90
54461;DHT22;40371;49.414;11.010;2022-10-30T00:10:12;15.30;99.90
54461;DHT22;40371;49.414;11.010;2022-10-30T00:12:38;15.30;99.90
54461;DHT22;40371;49.414;11.010;2022-10-30T00:15:04;15.30;99.90
54461;DHT22;40371;49.414;11.010;2022-10-30T00:17:30;15.20;99.90
54461;DHT22;40371;49.414;11.010;2022-10-30T00:19:55;15.10;99.90
54461;DHT22;40371;49.414;11.010;2022-10-30T00:22:21;15.00;99.90
54461;DHT22;40371;49.414;11.010;2022-10-30T00:24:47;14.90;99.90
54461;DHT22;40371;49.414;11.010;2022-10-30T00:27:12;15.00;99.90
54461;DHT22;40371;49.414;11.010;2022-10-30T00:29:38;15.10;99.90
54461;DHT22;40371;49.414;11.010;2022-10-30T00:32:03;15.00;99.90
54461;DHT22;40371;49.414;11.010;2022-10-30T00:34:29;15.00;99.90
54461;DHT22;40371;49.414;11.010;2022-10-30T00:36:55;15.00;99.90
54461;DHT22;40371;49.414;11.010;2022-10-30T00:39:20;15.00;99.90
54461;DHT22;40371;49.414;11.010;2022-10-30T00:41:46;15.00;99.90
54461;DHT22;40371;49.414;11.010;2022-10-30T00:47:08;15.00;99.90
54461;DHT22;40371;49.414;11.010;2022-10-30T00:49:39;15.00;99.90
54461;DHT22;40371;49.414;11.010;2022-10-30T00:52:11;14.90;99.90
54461;DHT22;40371;49.414;11.010;2022-10-30T00:54:37;14.90;99.90
54461;DHT22;40371;49.414;11.010;2022-10-30T00:57:04;14.80;99.90
54461;DHT22;40371;49.414;11.010;2022-10-30T00:59:32;14.80;99.90
54461;DHT22;40371;49.414;11.010;2022-10-30T01:02:01;14.90;99.90
54461;DHT22;40371;49.414;11.010;2022-10-30T01:04:28;14.90;99.90
54461;DHT22;40371;49.414;11.010;2022-10-30T01:06:55;14.80;99.90
54461;DHT22;40371;49.414;11.010;2022-10-30T01:09:22;14.90;99.90
54461;DHT22;40371;49.414;11.010;2022-10-30T01:11:48;14.80;99.90
54461;DHT22;40371;49.414;11.010;2022-10-30T01:14:16;14.80;99.90
54461;DHT22;40371;49.414;11.010;2022-10-30T01:17:23;14.80;99.90
54461;DHT22;40371;49.414;11.010;2022-10-30T01:20:08;14.80;99.90
54461;DHT22;40371;49.414;11.010;2022-10-30T01:28:34;14.90;99.90
54461;DHT22;40371;49.414;11.010;2022-10-30T01:31:31;14.90;99.90
54461;DHT22;40371;49.414;11.010;2022-10-30T01:34:29;15.00;99.90
54461;DHT22;40371;49.414;11.010;2022-10-30T01:37:05;15.00;99.90
54461;DHT22;40371;49.414;11.010;2022-10-30T01:39:35;15.10;99.90
54461;DHT22;40371;49.414;11.010;2022-10-30T01:45:06;15.10;99.90
54461;DHT22;40371;49.414;11.010;2022-10-30T01:53:43;15.00;99.90
54461;DHT22;40371;49.414;11.010;2022-10-30T01:59:26;15.00;99.90
54461;DHT22;40371;49.414;11.010;2022-10-30T02:01:55;15.10;99.90
54461;DHT22;40371;49.414;11.010;2022-10-30T02:04:22;15.20;99.90
54461;DHT22;40371;49.414;11.010;2022-10-30T02:06:50;15.20;99.90
54461;DHT22;40371;49.414;11.010;2022-10-30T02:09:16;15.10;99.90
54461;DHT22;40371;49.414;11.010;2022-10-30T02:11:47;15.00;99.90
54461;DHT22;40371;49.414;11.010;2022-10-30T02:14:17;15.00;99.90
54461;DHT22;40371;49.414;11.010;2022-10-30T02:16:47;14.90;99.90
54461;DHT22;40371;49.414;11.010;2022-10-30T02:19:17;14.90;99.90
54461;DHT22;40371;49.414;11.010;2022-10-30T02:21:43;14.90;99.90
54461;DHT22;40371;49.414;11.010;2022-10-30T02:24:08;14.90;99.90
54461;DHT22;40371;49.414;11.010;2022-10-30T02:26:35;14.90;99.90
54461;DHT22;40371;49.414;11.010;2022-10-30T02:29:00;14.90;99.90
54461;DHT22;40371;49.414;11.010;2022-10-30T02:31:26;14.80;99.90
54461;DHT22;40371;49.414;11.010;2022-10-30T02:33:52;14.90;99.90
54461;DHT22;40371;49.414;11.010;2022-10-30T02:36:18;14.90;99.90
54461;DHT22;40371;49.414;11.010;2022-10-30T02:38:44;14.90;99.90
54461;DHT22;40371;49.414;11.010;2022-10-30T02:41:11;14.90;99.90
54461;DHT22;40371;49.414;11.010;2022-10-30T02:43:37;14.90;99.90
54461;DHT22;40371;49.414;11.010;2022-10-30T02:46:03;14.90;99.90
54461;DHT22;40371;49.414;11.010;2022-10-30T02:48:30;14.80;99.90
54461;DHT22;40371;49.414;11.010;2022-10-30T02:51:01;14.80;99.90
54461;DHT22;40371;49.414;11.010;2022-10-30T02:53:28;14.80;99.90
54461;DHT22;40371;49.414;11.010;2022-10-30T02:55:54;14.90;99.90
54461;DHT22;40371;49.414;11.010;2022-10-30T02:58:21;14.80;99.90
54461;DHT22;40371;49.414;11.010;2022-10-30T03:00:46;14.80;99.90
54461;DHT22;40371;49.414;11.010;2022-10-30T03:03:12;14.80;99.90
54461;DHT22;40371;49.414;11.010;2022-10-30T03:05:39;14.80;99.90
54461;DHT22;40371;49.414;11.010;2022-10-30T03:08:05;14.80;99.90
54461;DHT22;40371;49.414;11.010;2022-10-30T03:10:30;14.80;99.90
54461;DHT22;40371;49.414;11.010;2022-10-30T03:12:58;14.90;99.90
54461;DHT22;40371;49.414;11.010;2022-10-30T03:15:23;14.80;99.90
54461;DHT22;40371;49.414;11.010;2022-10-30T03:17:49;14.80;99.90
54461;DHT22;40371;49.414;11.010;2022-10-30T03:20:17;14.80;99.90
54461;DHT22;40371;49.414;11.010;2022-10-30T03:22:42;14.90;99.90
54461;DHT22;40371;49.414;11.010;2022-10-30T03:25:08;14.90;99.90
54461;DHT22;40371;49.414;11.010;2022-10-30T03:27:34;14.90;99.90
54461;DHT22;40371;49.414;11.010;2022-10-30T03:29:59;14.70;99.90
54461;DHT22;40371;49.414;11.010;2022-10-30T03:32:25;14.60;99.90
54461;DHT22;40371;49.414;11.010;2022-10-30T03:34:52;14.50;99.90
54461;DHT22;40371;49.414;11.010;2022-10-30T03:37:18;14.50;99.90
54461;DHT22;40371;49.414;11.010;2022-10-30T03:39:44;14.40;99.90
54461;DHT22;40371;49.414;11.010;2022-10-30T03:42:09;14.40;99.90
54461;DHT22;40371;49.414;11.010;2022-10-30T03:44:35;14.30;99.90
54461;DHT22;40371;49.414;11.010;2022-10-30T03:47:01;14.40;99.90
54461;DHT22;40371;49.414;11.010;2022-10-30T03:49:32;14.40;99.90
54461;DHT22;40371;49.414;11.010;2022-10-30T03:52:00;14.40;99.90
54461;DHT22;40371;49.414;11.010;2022-10-30T03:54:25;14.30;99.90
54461;DHT22;40371;49.414;11.010;2022-10-30T03:56:51;14.40;99.90
54461;DHT22;40371;49.414;11.010;2022-10-30T03:59:18;14.40;99.90
54461;DHT22;40371;49.414;11.010;2022-10-30T04:01:58;14.40;99.90
54461;DHT22;40371;49.414;11.010;2022-10-30T04:04:24;14.40;99.90
54461;DHT22;40371;49.414;11.010;2022-10-30T04:06:50;14.40;99.90
54461;DHT22;40371;49.414;11.010;2022-10-30T04:09:15;14.40;99.90
54461;DHT22;40371;49.414;11.010;2022-10-30T04:11:43;14.50;99.90
54461;DHT22;40371;49.414;11.010;2022-10-30T04:14:08;14.40;99.90
54461;DHT22;40371;49.414;11.010;2022-10-30T04:16:34;14.30;99.90
54461;DHT22;40371;49.414;11.010;2022-10-30T04:19:00;14.30;99.90
54461;DHT22;40371;49.414;11.010;2022-10-30T04:21:26;14.30;99.90
54461;DHT22;40371;49.414;11.010;2022-10-30T04:23:52;14.30;99.90
54461;DHT22;40371;49.414;11.010;2022-10-30T04:26:21;14.20;99.90
54461;DHT22;40371;49.414;11.010;2022-10-30T04:28:48;14.20;99.90
54461;DHT22;40371;49.414;11.010;2022-10-30T04:31:13;14.20;99.90
54461;DHT22;40371;49.414;11.010;2022-10-30T04:33:39;14.00;99.90
54461;DHT22;40371;49.414;11.010;2022-10-30T04:36:05;14.10;99.90
54461;DHT22;40371;49.414;11.010;2022-10-30T04:38:31;14.00;99.90
54461;DHT22;40371;49.414;11.010;2022-10-30T04:40:56;14.10;99.90
54461;DHT22;40371;49.414;11.010;2022-10-30T04:43:31;14.10;99.90
54461;DHT22;40371;49.414;11.010;2022-10-30T04:45:56;14.10;99.90
54461;DHT22;40371;49.414;11.010;2022-10-30T04:48:22;14.10;99.90
54461;DHT22;40371;49.414;11.010;2022-10-30T04:50:48;14.20;99.90
54461;DHT22;40371;49.414;11.010;2022-10-30T04:53:23;14.10;99.90
54461;DHT22;40371;49.414;11.010;2022-10-30T04:55:54;14.00;99.90
54461;DHT22;40371;49.414;11.010;2022-10-30T04:58:20;14.10;99.90
54461;DHT22;40371;49.414;11.010;2022-10-30T05:00:52;14.10;99.90
54461;DHT22;40371;49.414;11.010;2022-10-30T05:03:21;14.10;99.90
54461;DHT22;40371;49.414;11.010;2022-10-30T05:05:53;14.10;99.90
54461;DHT22;40371;49.414;11.010;2022-10-30T05:08:20;14.00;99.90
54461;DHT22;40371;49.414;11.010;2022-10-30T05:10:45;14.10;99.90
54461;DHT22;40371;49.414;11.010;2022-10-30T05:13:12;14.10;99.90
54461;DHT22;40371;49.414;11.010;2022-10-30T05:15:37;14.00;99.90
54461;DHT22;40371;49.414;11.010;2022-10-30T05:18:03;14.00;99.90
54461;DHT22;40371;49.414;11.010;2022-10-30T05:20:29;14.00;99.90
54461;DHT22;40371;49.414;11.010;2022-10-30T05:22:56;14.00;99.90
54461;DHT22;40371;49.414;11.010;2022-10-30T05:25:23;14.00;99.90
54461;DHT22;40371;49.414;11.010;2022-10-30T05:27:49;13.90;99.90
54461;DHT22;40371;49.414;11.010;2022-10-30T05:30:17;13.90;99.90
54461;DHT22;40371;49.414;11.010;2022-10-30T05:32:42;13.80;99.90
54461;DHT22;40371;49.414;11.010;2022-10-30T05:35:08;13.80;99.90
54461;DHT22;40371;49.414;11.010;2022-10-30T05:37:34;13.70;99.90
54461;DHT22;40371;49.414;11.010;2022-10-30T05:39:59;13.70;99.90
54461;DHT22;40371;49.414;11.010;2022-10-30T05:42:27;13.50;99.90
54461;DHT22;40371;49.414;11.010;2022-10-30T05:44:55;13.30;99.90
54461;DHT22;40371;49.414;11.010;2022-10-30T05:47:21;13.20;99.90
54461;DHT22;40371;49.414;11.010;2022-10-30T05:49:50;13.10;99.90
54461;DHT22;40371;49.414;11.010;2022-10-30T05:52:19;13.20;99.90
54461;DHT22;40371;49.414;11.010;2022-10-30T05:54:45;13.20;99.90
54461;DHT22;40371;49.414;11.010;2022-10-30T05:57:18;13.20;99.90
54461;DHT22;40371;49.414;11.010;2022-10-30T05:59:44;13.10;99.90
54461;DHT22;40371;49.414;11.010;2022-10-30T06:02:10;13.10;99.90
54461;DHT22;40371;49.414;11.010;2022-10-30T06:04:35;13.30;99.90
54461;DHT22;40371;49.414;11.010;2022-10-30T06:07:05;13.40;99.90
54461;DHT22;40371;49.414;11.010;2022-10-30T06:09:31;13.40;99.90
54461;DHT22;40371;49.414;11.010;2022-10-30T06:12:15;13.40;99.90
54461;DHT22;40371;49.414;11.010;2022-10-30T06:15:10;13.40;99.90
54461;DHT22;40371;49.414;11.010;2022-10-30T06:17:36;13.40;99.90
54461;DHT22;40371;49.414;11.010;2022-10-30T06:20:14;13.40;99.90
54461;DHT22;40371;49.414;11.010;2022-10-30T06:23:15;13.40;99.90
54461;DHT22;40371;49.414;11.010;2022-10-30T06:25:50;13.40;99.90
54461;DHT22;40371;49.414;11.010;2022-10-30T06:28:21;13.40;99.90
54461;DHT22;40371;49.414;11.010;2022-10-30T06:30:47;13.40;99.90
54461;DHT22;40371;49.414;11.010;2022-10-30T06:33:12;13.40;99.90
54461;DHT22;40371;49.414;11.010;2022-10-30T06:35:43;13.50;99.90
54461;DHT22;40371;49.414;11.010;2022-10-30T06:38:09;13.40;99.90
54461;DHT22;40371;49.414;11.010;2022-10-30T06:40:36;13.50;99.90
54461;DHT22;40371;49.414;11.010;2022-10-30T06:43:24;13.60;99.90
54461;DHT22;40371;49.414;11.010;2022-10-30T06:46:10;13.50;99.90
54461;DHT22;40371;49.414;11.010;2022-10-30T06:48:38;13.60;99.90
54461;DHT22;40371;49.414;11.010;2022-10-30T06:51:04;13.60;99.90
54461;DHT22;40371;49.414;11.010;2022-10-30T06:53:34;13.70;99.90
54461;DHT22;40371;49.414;11.010;2022-10-30T06:56:20;13.80;99.90
54461;DHT22;40371;49.414;11.010;2022-10-30T06:59:04;13.70;99.90
54461;DHT22;40371;49.414;11.010;2022-10-30T07:01:35;13.80;99.90
54461;DHT22;40371;49.414;11.010;2022-10-30T07:04:20;13.90;99.90
54461;DHT22;40371;49.414;11.010;2022-10-30T07:06:46;14.00;99.90
54461;DHT22;40371;49.414;11.010;2022-10-30T07:09:12;14.00;99.90
54461;DHT22;40371;49.414;11.010;2022-10-30T07:11:37;13.90;99.90
54461;DHT22;40371;49.414;11.010;2022-10-30T07:14:33;13.90;99.90
54461;DHT22;40371;49.414;11.010;2022-10-30T07:17:19;14.00;99.90
54461;DHT22;40371;49.414;11.010;2022-10-30T07:19:51;14.10;99.90
54461;DHT22;40371;49.414;11.010;2022-10-30T07:22:17;14.20;99.90
54461;DHT22;40371;49.414;11.010;2022-10-30T07:24:47;14.20;99.90
54461;DHT22;40371;49.414;11.010;2022-10-30T07:27:44;14.30;99.90
54461;DHT22;40371;49.414;11.010;2022-10-30T07:30:26;14.30;99.90
54461;DHT22;40371;49.414;11.010;2022-10-30T07:33:10;14.30;99.90
54461;DHT22;40371;49.414;11.010;2022-10-30T07:35:52;14.30;99.90
54461;DHT22;40371;49.414;11.010;2022-10-30T07:38:36;14.30;99.90
54461;DHT22;40371;49.414;11.010;2022-10-30T07:41:19;14.50;99.90
54461;DHT22;40371;49.414;11.010;2022-10-30T07:43:48;14.40;99.90
54461;DHT22;40371;49.414;11.010;2022-10-30T07:46:32;14.40;99.90
54461;DHT22;40371;49.414;11.010;2022-10-30T07:49:18;14.30;99.90
54461;DHT22;40371;49.414;11.010;2022-10-30T07:51:48;14.50;99.90
54461;DHT22;40371;49.414;11.010;2022-10-30T07:54:14;14.70;99.90
54461;DHT22;40371;49.414;11.010;2022-10-30T07:56:41;14.70;99.90
54461;DHT22;40371;49.414;11.010;2022-10-30T07:59:35;14.80;99.90
54461;DHT22;40371;49.414;11.010;2022-10-30T08:02:39;14.90;99.90
54461;DHT22;40371;49.414;11.010;2022-10-30T08:05:23;14.90;99.90
54461;DHT22;40371;49.414;11.010;2022-10-30T08:08:03;14.90;99.90
54461;DHT22;40371;49.414;11.010;2022-10-30T08:10:29;14.80;99.90
54461;DHT22;40371;49.414;11.010;2022-10-30T08:12:56;15.00;99.90
54461;DHT22;40371;49.414;11.010;2022-10-30T08:15:22;15.00;99.90
54461;DHT22;40371;49.414;11.010;2022-10-30T08:17:49;15.00;99.90
54461;DHT22;40371;49.414;11.010;2022-10-30T08:20:17;15.10;99.90
54461;DHT22;40371;49.414;11.010;2022-10-30T08:22:55;15.30;99.90
54461;DHT22;40371;49.414;11.010;2022-10-30T08:25:25;15.30;99.90
54461;DHT22;40371;49.414;11.010;2022-10-30T08:27:58;15.40;99.90
54461;DHT22;40371;49.414;11.010;2022-10-30T08:30:28;15.40;99.90
54461;DHT22;40371;49.414;11.010;2022-10-30T08:33:01;15.50;99.90
54461;DHT22;40371;49.414;11.010;2022-10-30T08:35:49;15.60;99.90
54461;DHT22;40371;49.414;11.010;2022-10-30T08:38:16;15.70;99.90
54461;DHT22;40371;49.414;11.010;2022-10-30T08:40:43;16.00;99.90
54461;DHT22;40371;49.414;11.010;2022-10-30T08:43:09;16.10;99.90
54461;DHT22;40371;49.414;11.010;2022-10-30T08:45:35;16.10;99.90
54461;DHT22;40371;49.414;11.010;2022-10-30T08:48:10;16.50;99.90
54461;DHT22;40371;49.414;11.010;2022-10-30T08:50:38;17.00;99.90
54461;DHT22;40371;49.414;11.010;2022-10-30T08:53:12;17.30;99.90
54461;DHT22;40371;49.414;11.010;2022-10-30T08:55:39;17.90;99.90
54461;DHT22;40371;49.414;11.010;2022-10-30T08:58:11;18.20;99.90
54461;DHT22;40371;49.414;11.010;2022-10-30T09:00:37;18.50;99.90
54461;DHT22;40371;49.414;11.010;2022-10-30T09:03:09;19.10;99.90
54461;DHT22;40371;49.414;11.010;2022-10-30T09:05:37;20.30;99.90
54461;DHT22;40371;49.414;11.010;2022-10-30T09:08:23;21.00;99.90
54461;DHT22;40371;49.414;11.010;2022-10-30T09:11:07;21.60;99.90
54461;DHT22;40371;49.414;11.010;2022-10-30T09:13:32;21.70;99.90
54461;DHT22;40371;49.414;11.010;2022-10-30T09:16:00;22.30;99.90
54461;DHT22;40371;49.414;11.010;2022-10-30T09:18:27;23.10;99.90
54461;DHT22;40371;49.414;11.010;2022-10-30T09:20:53;23.90;99.90
54461;DHT22;40371;49.414;11.010;2022-10-30T09:23:20;23.30;99.90
54461;DHT22;40371;49.414;11.010;2022-10-30T09:25:49;23.90;99.90
54461;DHT22;40371;49.414;11.010;2022-10-30T09:28:25;24.40;99.90
54461;DHT22;40371;49.414;11.010;2022-10-30T09:31:11;25.10;99.90
54461;DHT22;40371;49.414;11.010;2022-10-30T09:33:37;25.70;99.90
54461;DHT22;40371;49.414;11.010;2022-10-30T09:36:26;24.30;99.90
54461;DHT22;40371;49.414;11.010;2022-10-30T09:38:51;24.30;99.90
54461;DHT22;40371;49.414;11.010;2022-10-30T09:44:39;24.10;99.90
54461;DHT22;40371;49.414;11.010;2022-10-30T09:50:21;25.90;99.90
54461;DHT22;40371;49.414;11.010;2022-10-30T09:53:09;25.30;99.90
54461;DHT22;40371;49.414;11.010;2022-10-30T09:56:02;25.50;99.90
54461;DHT22;40371;49.414;11.010;2022-10-30T09:58:42;25.80;99.90
54461;DHT22;40371;49.414;11.010;2022-10-30T10:07:07;26.80;99.90
54461;DHT22;40371;49.414;11.010;2022-10-30T10:10:05;27.00;99.90
54461;DHT22;40371;49.414;11.010;2022-10-30T10:12:45;26.80;99.90
54461;DHT22;40371;49.414;11.010;2022-10-30T10:18:16;27.30;99.90
54461;DHT22;40371;49.414;11.010;2022-10-30T10:20:47;28.10;99.90
54461;DHT22;40371;49.414;11.010;2022-10-30T10:23:19;28.50;99.90
54461;DHT22;40371;49.414;11.010;2022-10-30T10:25:57;29.40;99.90
54461;DHT22;40371;49.414;11.010;2022-10-30T10:31:42;29.80;97.60
54461;DHT22;40371;49.414;11.010;2022-10-30T10:42:32;29.20;96.60
54461;DHT22;40371;49.414;11.010;2022-10-30T10:45:29;29.20;96.30
54461;DHT22;40371;49.414;11.010;2022-10-30T10:48:18;30.10;96.00
54461;DHT22;40371;49.414;11.010;2022-10-30T10:51:01;28.60;95.70
54461;DHT22;40371;49.414;11.010;2022-10-30T10:53:37;28.70;96.70
54461;DHT22;40371;49.414;11.010;2022-10-30T10:56:05;29.50;96.00
54461;DHT22;40371;49.414;11.010;2022-10-30T10:58:50;30.30;95.00
54461;DHT22;40371;49.414;11.010;2022-10-30T11:01:21;30.20;94.50
54461;DHT22;40371;49.414;11.010;2022-10-30T11:04:02;28.70;94.00
54461;DHT22;40371;49.414;11.010;2022-10-30T11:06:34;29.20;94.70
54461;DHT22;40371;49.414;11.010;2022-10-30T11:09:21;28.40;96.10
54461;DHT22;40371;49.414;11.010;2022-10-30T11:11:49;27.80;96.00
54461;DHT22;40371;49.414;11.010;2022-10-30T11:14:23;28.50;95.40
54461;DHT22;40371;49.414;11.010;2022-10-30T11:19:30;27.70;95.50
54461;DHT22;40371;49.414;11.010;2022-10-30T11:21:57;27.80;96.90
54461;DHT22;40371;49.414;11.010;2022-10-30T11:24:33;27.70;96.30
54461;DHT22;40371;49.414;11.010;2022-10-30T11:27:23;28.10;96.40
54461;DHT22;40371;49.414;11.010;2022-10-30T11:29:58;27.90;96.60
54461;DHT22;40371;49.414;11.010;2022-10-30T11:32:27;27.50;97.30
54461;DHT22;40371;49.414;11.010;2022-10-30T11:35:19;27.00;97.80
54461;DHT22;40371;49.414;11.010;2022-10-30T11:37:50;26.70;98.60
54461;DHT22;40371;49.414;11.010;2022-10-30T11:40:20;26.70;98.30
54461;DHT22;40371;49.414;11.010;2022-10-30T11:42:58;26.30;98.80
54461;DHT22;40371;49.414;11.010;2022-10-30T11:45:31;26.00;99.20
54461;DHT22;40371;49.414;11.010;2022-10-30T11:47:59;25.90;99.50
54461;DHT22;40371;49.414;11.010;2022-10-30T11:50:34;25.80;99.90
54461;DHT22;40371;49.414;11.010;2022-10-30T11:53:08;26.20;99.70
54461;DHT22;40371;49.414;11.010;2022-10-30T11:55:38;25.80;99.60
54461;DHT22;40371;49.414;11.010;2022-10-30T11:58:06;25.90;99.90
54461;DHT22;40371;49.414;11.010;2022-10-30T12:00:35;25.70;99.90
54461;DHT22;40371;49.414;11.010;2022-10-30T12:03:02;25.50;99.90
54461;DHT22;40371;49.414;11.010;2022-10-30T12:05:38;25.90;99.90
54461;DHT22;40371;49.414;11.010;2022-10-30T12:10:55;25.50;99.80
54461;DHT22;40371;49.414;11.010;2022-10-30T12:13:23;25.40;99.90
54461;DHT22;40371;49.414;11.010;2022-10-30T12:18:35;25.60;99.90
54461;DHT22;40371;49.414;11.010;2022-10-30T12:21:02;25.60;99.90
54461;DHT22;40371;49.414;11.010;2022-10-30T12:23:28;25.50;99.90
54461;DHT22;40371;49.414;11.010;2022-10-30T12:25:58;25.50;99.90
54461;DHT22;40371;49.414;11.010;2022-10-30T12:28:27;25.40;99.90
54461;DHT22;40371;49.414;11.010;2022-10-30T12:33:36;25.30;99.90
54461;DHT22;40371;49.414;11.010;2022-10-30T12:36:15;25.00;99.90
54461;DHT22;40371;49.414;11.010;2022-10-30T12:39:01;25.00;99.90
54461;DHT22;40371;49.414;11.010;2022-10-30T12:41:42;24.90;99.90
54461;DHT22;40371;49.414;11.010;2022-10-30T12:44:13;24.30;99.90
54461;DHT22;40371;49.414;11.010;2022-10-30T12:46:54;24.40;99.90
54461;DHT22;40371;49.414;11.010;2022-10-30T12:49:33;24.40;99.90
54461;DHT22;40371;49.414;11.010;2022-10-30T12:52:27;24.30;99.90
54461;DHT22;40371;49.414;11.010;2022-10-30T12:55:27;24.40;99.90
54461;DHT22;40371;49.414;11.010;2022-10-30T13:00:57;24.30;99.90
54461;DHT22;40371;49.414;11.010;2022-10-30T13:03:33;24.40;99.90
54461;DHT22;40371;49.414;11.010;2022-10-30T13:06:15;24.30;99.90
54461;DHT22;40371;49.414;11.010;2022-10-30T13:11:33;24.20;99.90
54461;DHT22;40371;49.414;11.010;2022-10-30T13:14:03;24.00;99.90
54461;DHT22;40371;49.414;11.010;2022-10-30T13:16:30;23.70;99.90
54461;DHT22;40371;49.414;11.010;2022-10-30T13:18:59;23.60;99.90
54461;DHT22;40371;49.414;11.010;2022-10-30T13:24:24;23.70;99.90
54461;DHT22;40371;49.414;11.010;2022-10-30T13:27:01;23.50;99.90
54461;DHT22;40371;49.414;11.010;2022-10-30T13:32:25;23.40;99.90
54461;DHT22;40371;49.414;11.010;2022-10-30T13:37:40;23.50;99.90
54461;DHT22;40371;49.414;11.010;2022-10-30T13:40:17;23.40;99.90
54461;DHT22;40371;49.414;11.010;2022-10-30T13:54:12;23.40;99.90
54461;DHT22;40371;49.414;11.010;2022-10-30T13:56:40;23.50;99.90
54461;DHT22;40371;49.414;11.010;2022-10-30T13:59:23;23.60;99.90
54461;DHT22;40371;49.414;11.010;2022-10-30T14:04:52;23.50;99.90
54461;DHT22;40371;49.414;11.010;2022-10-30T14:07:41;23.40;99.90
54461;DHT22;40371;49.414;11.010;2022-10-30T14:10:55;23.30;99.90
54461;DHT22;40371;49.414;11.010;2022-10-30T14:15:54;23.20;99.90
54461;DHT22;40371;49.414;11.010;2022-10-30T14:18:25;23.10;99.90
54461;DHT22;40371;49.414;11.010;2022-10-30T14:20:52;23.10;99.90
54461;DHT22;40371;49.414;11.010;2022-10-30T14:26:29;22.90;99.90
54461;DHT22;40371;49.414;11.010;2022-10-30T14:28:30;22.90;99.90
54461;DHT22;40371;49.414;11.010;2022-10-30T14:31:11;22.90;99.90
54461;DHT22;40371;49.414;11.010;2022-10-30T14:33:50;22.80;99.90
54461;DHT22;40371;49.414;11.010;2022-10-30T14:36:22;22.80;99.90
54461;DHT22;40371;49.414;11.010;2022-10-30T14:38:58;22.80;99.90
54461;DHT22;40371;49.414;11.010;2022-10-30T14:47:36;22.50;99.90
54461;DHT22;40371;49.414;11.010;2022-10-30T14:58:37;22.10;99.90
54461;DHT22;40371;49.414;11.010;2022-10-30T15:04:03;22.00;99.90
54461;DHT22;40371;49.414;11.010;2022-10-30T15:06:51;21.90;99.90
54461;DHT22;40371;49.414;11.010;2022-10-30T15:15:10;21.70;99.90
54461;DHT22;40371;49.414;11.010;2022-10-30T15:17:39;21.60;99.90
54461;DHT22;40371;49.414;11.010;2022-10-30T15:22:40;21.40;99.90
54461;DHT22;40371;49.414;11.010;2022-10-30T15:25:17;21.30;99.90
54461;DHT22;40371;49.414;11.010;2022-10-30T15:27:45;21.20;99.90
54461;DHT22;40371;49.414;11.010;2022-10-30T15:30:19;21.10;99.90
54461;DHT22;40371;49.414;11.010;2022-10-30T15:32:45;21.00;99.90
54461;DHT22;40371;49.414;11.010;2022-10-30T15:35:20;20.90;99.90
54461;DHT22;40371;49.414;11.010;2022-10-30T15:40:24;20.70;99.90
54461;DHT22;40371;49.414;11.010;2022-10-30T15:42:51;20.70;99.90
54461;DHT22;40371;49.414;11.010;2022-10-30T15:45:19;20.60;99.90
54461;DHT22;40371;49.414;11.010;2022-10-30T15:47:51;20.50;99.90
54461;DHT22;40371;49.414;11.010;2022-10-30T15:50:18;20.50;99.90
54461;DHT22;40371;49.414;11.010;2022-10-30T15:52:46;20.30;99.90
54461;DHT22;40371;49.414;11.010;2022-10-30T15:55:15;20.20;99.90
54461;DHT22;40371;49.414;11.010;2022-10-30T15:57:50;20.20;99.90
54461;DHT22;40371;49.414;11.010;2022-10-30T16:00:31;20.00;99.90
54461;DHT22;40371;49.414;11.010;2022-10-30T16:05:35;19.90;99.90
54461;DHT22;40371;49.414;11.010;2022-10-30T16:08:02;19.90;99.90
54461;DHT22;40371;49.414;11.010;2022-10-30T16:10:33;19.80;99.90
54461;DHT22;40371;49.414;11.010;2022-10-30T16:13:00;19.70;99.90
54461;DHT22;40371;49.414;11.010;2022-10-30T16:15:29;19.70;99.90
54461;DHT22;40371;49.414;11.010;2022-10-30T16:18:15;19.60;99.90
54461;DHT22;40371;49.414;11.010;2022-10-30T16:20:43;19.60;99.90
54461;DHT22;40371;49.414;11.010;2022-10-30T16:23:09;19.40;99.90
54461;DHT22;40371;49.414;11.010;2022-10-30T16:25:36;19.40;99.90
54461;DHT22;40371;49.414;11.010;2022-10-30T16:28:04;19.30;99.90
54461;DHT22;40371;49.414;11.010;2022-10-30T16:30:31;19.20;99.90
54461;DHT22;40371;49.414;11.010;2022-10-30T16:32:58;19.10;99.90
54461;DHT22;40371;49.414;11.010;2022-10-30T16:35:25;19.00;99.90
54461;DHT22;40371;49.414;11.010;2022-10-30T16:37:52;19.00;99.90
54461;DHT22;40371;49.414;11.010;2022-10-30T16:40:27;18.90;99.90
54461;DHT22;40371;49.414;11.010;2022-10-30T16:42:57;18.90;99.90
54461;DHT22;40371;49.414;11.010;2022-10-30T16:48:07;18.70;99.90
54461;DHT22;40371;49.414;11.010;2022-10-30T16:50:35;18.70;99.90
54461;DHT22;40371;49.414;11.010;2022-10-30T16:53:31;18.60;99.90
54461;DHT22;40371;49.414;11.010;2022-10-30T16:55:57;18.40;99.90
54461;DHT22;40371;49.414;11.010;2022-10-30T16:58:27;18.40;99.90
54461;DHT22;40371;49.414;11.010;2022-10-30T17:01:02;18.40;99.90
54461;DHT22;40371;49.414;11.010;2022-10-30T17:03:32;18.40;99.90
54461;DHT22;40371;49.414;11.010;2022-10-30T17:06:26;18.40;99.90
54461;DHT22;40371;49.414;11.010;2022-10-30T17:08:56;18.20;99.90
54461;DHT22;40371;49.414;11.010;2022-10-30T17:11:34;18.30;99.90
54461;DHT22;40371;49.414;11.010;2022-10-30T17:14:04;18.30;99.90
54461;DHT22;40371;49.414;11.010;2022-10-30T17:16:36;18.20;99.90
54461;DHT22;40371;49.414;11.010;2022-10-30T17:21:54;17.90;99.90
54461;DHT22;40371;49.414;11.010;2022-10-30T17:24:31;17.80;99.90
54461;DHT22;40371;49.414;11.010;2022-10-30T17:27:00;17.50;99.90
54461;DHT22;40371;49.414;11.010;2022-10-30T17:29:44;17.40;99.90
54461;DHT22;40371;49.414;11.010;2022-10-30T17:34:44;17.40;99.90
54461;DHT22;40371;49.414;11.010;2022-10-30T17:37:09;17.30;99.90
54461;DHT22;40371;49.414;11.010;2022-10-30T17:39:35;17.20;99.90
54461;DHT22;40371;49.414;11.010;2022-10-30T17:42:00;17.30;99.90
54461;DHT22;40371;49.414;11.010;2022-10-30T17:44:27;17.30;99.90
54461;DHT22;40371;49.414;11.010;2022-10-30T17:46:54;17.30;99.90
54461;DHT22;40371;49.414;11.010;2022-10-30T17:49:29;17.30;99.90
54461;DHT22;40371;49.414;11.010;2022-10-30T17:51:55;17.20;99.90
54461;DHT22;40371;49.414;11.010;2022-10-30T17:54:21;17.20;99.90